KTA weather

Karratha Airport
Karratha, Western Australia, Australia

Public forecast

Using degrees Celsius for public forecast. Weather courtesy of forecast.io.

METAR (pilot weather report)

Closest report is Barrow Island Airport, 77.3 nm (143.1 km) W. Retrieved 2017/09/20 22:00 UTC (45 minutes ago):

YBWX 202200Z AUTO 24009KT //// // ////// 22/20 Q1012

TAF (pilot weather forecast)

Closest forecast is Port Hedland International Airport, 106.1 nm (196.5 km) E. Retrieved 2017/09/20 18:37 UTC (4 hours ago):

TAF YPPD 201711Z 2018/2118 18006KT CAVOK FM210300 03007KT CAVOK FM210500 31012KT CAVOK